sensor_id;sensor_type;location;lat;lon;timestamp;P1;durP1;ratioP1;P2;durP2;ratioP2
22774;SDS011;11554;51.106;3.684;2022-11-25T00:00:00;10.90;;;2.30;;
22774;SDS011;11554;51.106;3.684;2022-11-25T00:05:00;10.90;;;2.30;;
22774;SDS011;11554;51.106;3.684;2022-11-25T00:10:00;10.10;;;1.70;;
22774;SDS011;11554;51.106;3.684;2022-11-25T00:15:00;10.10;;;1.70;;
22774;SDS011;11554;51.106;3.684;2022-11-25T00:20:00;6.50;;;1.60;;
22774;SDS011;11554;51.106;3.684;2022-11-25T00:25:00;6.50;;;1.60;;
22774;SDS011;11554;51.106;3.684;2022-11-25T00:30:00;8.10;;;1.50;;
22774;SDS011;11554;51.106;3.684;2022-11-25T00:35:00;8.10;;;1.50;;
22774;SDS011;11554;51.106;3.684;2022-11-25T00:40:00;5.00;;;1.10;;
22774;SDS011;11554;51.106;3.684;2022-11-25T00:45:00;5.00;;;1.10;;
22774;SDS011;11554;51.106;3.684;2022-11-25T00:50:00;5.80;;;1.20;;
22774;SDS011;11554;51.106;3.684;2022-11-25T00:55:00;5.80;;;1.20;;
22774;SDS011;11554;51.106;3.684;2022-11-25T01:00:00;5.40;;;1.10;;
22774;SDS011;11554;51.106;3.684;2022-11-25T01:05:00;5.40;;;1.10;;
22774;SDS011;11554;51.106;3.684;2022-11-25T01:10:00;5.60;;;0.80;;
22774;SDS011;11554;51.106;3.684;2022-11-25T01:15:00;5.60;;;0.80;;
22774;SDS011;11554;51.106;3.684;2022-11-25T01:20:00;3.90;;;0.80;;
22774;SDS011;11554;51.106;3.684;2022-11-25T01:25:00;3.90;;;0.80;;
22774;SDS011;11554;51.106;3.684;2022-11-25T01:30:00;3.10;;;0.70;;
22774;SDS011;11554;51.106;3.684;2022-11-25T01:35:00;3.10;;;0.70;;
22774;SDS011;11554;51.106;3.684;2022-11-25T01:40:00;3.10;;;0.80;;
22774;SDS011;11554;51.106;3.684;2022-11-25T01:50:03;3.10;;;1.00;;
22774;SDS011;11554;51.106;3.684;2022-11-25T01:55:03;3.10;;;1.00;;
22774;SDS011;11554;51.106;3.684;2022-11-25T02:00:03;4.00;;;1.70;;
22774;SDS011;11554;51.106;3.684;2022-11-25T02:05:00;4.00;;;1.70;;
22774;SDS011;11554;51.106;3.684;2022-11-25T02:10:05;3.70;;;1.10;;
22774;SDS011;11554;51.106;3.684;2022-11-25T02:15:00;3.70;;;1.10;;
22774;SDS011;11554;51.106;3.684;2022-11-25T02:20:02;3.70;;;1.00;;
22774;SDS011;11554;51.106;3.684;2022-11-25T02:25:05;3.70;;;1.00;;
22774;SDS011;11554;51.106;3.684;2022-11-25T02:30:00;3.00;;;1.10;;
22774;SDS011;11554;51.106;3.684;2022-11-25T02:35:00;3.00;;;1.10;;
22774;SDS011;11554;51.106;3.684;2022-11-25T02:40:00;5.90;;;1.20;;
22774;SDS011;11554;51.106;3.684;2022-11-25T02:45:01;5.90;;;1.20;;
22774;SDS011;11554;51.106;3.684;2022-11-25T02:50:00;5.80;;;0.90;;
22774;SDS011;11554;51.106;3.684;2022-11-25T02:55:00;5.80;;;0.90;;
22774;SDS011;11554;51.106;3.684;2022-11-25T03:00:00;5.50;;;0.90;;
22774;SDS011;11554;51.106;3.684;2022-11-25T03:05:00;5.50;;;0.90;;
22774;SDS011;11554;51.106;3.684;2022-11-25T03:10:00;4.80;;;1.00;;
22774;SDS011;11554;51.106;3.684;2022-11-25T03:15:00;4.80;;;1.00;;
22774;SDS011;11554;51.106;3.684;2022-11-25T03:20:00;4.70;;;1.10;;
22774;SDS011;11554;51.106;3.684;2022-11-25T03:25:00;4.70;;;1.10;;
22774;SDS011;11554;51.106;3.684;2022-11-25T03:30:00;7.10;;;1.40;;
22774;SDS011;11554;51.106;3.684;2022-11-25T03:35:00;7.10;;;1.40;;
22774;SDS011;11554;51.106;3.684;2022-11-25T03:40:00;5.40;;;1.30;;
22774;SDS011;11554;51.106;3.684;2022-11-25T03:45:00;5.40;;;1.30;;
22774;SDS011;11554;51.106;3.684;2022-11-25T03:50:00;7.50;;;1.70;;
22774;SDS011;11554;51.106;3.684;2022-11-25T03:55:00;7.50;;;1.70;;
22774;SDS011;11554;51.106;3.684;2022-11-25T04:00:00;5.70;;;1.50;;
22774;SDS011;11554;51.106;3.684;2022-11-25T04:05:00;5.70;;;1.50;;
22774;SDS011;11554;51.106;3.684;2022-11-25T04:10:00;6.40;;;1.50;;
22774;SDS011;11554;51.106;3.684;2022-11-25T04:15:00;6.40;;;1.50;;
22774;SDS011;11554;51.106;3.684;2022-11-25T04:20:00;6.50;;;1.50;;
22774;SDS011;11554;51.106;3.684;2022-11-25T04:25:00;6.50;;;1.50;;
22774;SDS011;11554;51.106;3.684;2022-11-25T04:30:00;6.50;;;1.60;;
22774;SDS011;11554;51.106;3.684;2022-11-25T04:35:00;6.50;;;1.60;;
22774;SDS011;11554;51.106;3.684;2022-11-25T04:40:00;7.80;;;2.20;;
22774;SDS011;11554;51.106;3.684;2022-11-25T04:45:02;7.80;;;2.20;;
22774;SDS011;11554;51.106;3.684;2022-11-25T04:50:00;8.50;;;2.10;;
22774;SDS011;11554;51.106;3.684;2022-11-25T04:55:00;8.50;;;2.10;;
22774;SDS011;11554;51.106;3.684;2022-11-25T05:00:00;8.00;;;1.50;;
22774;SDS011;11554;51.106;3.684;2022-11-25T05:05:00;8.00;;;1.50;;
22774;SDS011;11554;51.106;3.684;2022-11-25T05:10:00;11.00;;;2.90;;
22774;SDS011;11554;51.106;3.684;2022-11-25T05:15:00;11.00;;;2.90;;
22774;SDS011;11554;51.106;3.684;2022-11-25T05:20:00;5.90;;;1.40;;
22774;SDS011;11554;51.106;3.684;2022-11-25T05:25:00;5.90;;;1.40;;
22774;SDS011;11554;51.106;3.684;2022-11-25T05:30:00;8.40;;;1.50;;
22774;SDS011;11554;51.106;3.684;2022-11-25T05:35:00;8.40;;;1.50;;
22774;SDS011;11554;51.106;3.684;2022-11-25T05:40:00;7.10;;;1.50;;
22774;SDS011;11554;51.106;3.684;2022-11-25T05:45:00;7.10;;;1.50;;
22774;SDS011;11554;51.106;3.684;2022-11-25T05:50:00;5.90;;;1.30;;
22774;SDS011;11554;51.106;3.684;2022-11-25T05:55:00;5.90;;;1.30;;
22774;SDS011;11554;51.106;3.684;2022-11-25T06:00:00;5.80;;;1.30;;
22774;SDS011;11554;51.106;3.684;2022-11-25T06:05:00;5.80;;;1.30;;
22774;SDS011;11554;51.106;3.684;2022-11-25T06:10:00;4.40;;;1.50;;
22774;SDS011;11554;51.106;3.684;2022-11-25T06:15:00;4.40;;;1.50;;
22774;SDS011;11554;51.106;3.684;2022-11-25T06:20:00;4.90;;;1.50;;
22774;SDS011;11554;51.106;3.684;2022-11-25T06:25:00;4.90;;;1.50;;
22774;SDS011;11554;51.106;3.684;2022-11-25T06:30:00;10.50;;;2.60;;
22774;SDS011;11554;51.106;3.684;2022-11-25T06:35:00;10.50;;;2.60;;
22774;SDS011;11554;51.106;3.684;2022-11-25T06:40:00;8.00;;;2.50;;
22774;SDS011;11554;51.106;3.684;2022-11-25T06:45:00;8.00;;;2.50;;
22774;SDS011;11554;51.106;3.684;2022-11-25T06:50:00;8.80;;;2.70;;
22774;SDS011;11554;51.106;3.684;2022-11-25T06:55:00;8.80;;;2.70;;
22774;SDS011;11554;51.106;3.684;2022-11-25T07:00:00;9.60;;;2.60;;
22774;SDS011;11554;51.106;3.684;2022-11-25T07:05:00;9.60;;;2.60;;
22774;SDS011;11554;51.106;3.684;2022-11-25T07:10:00;12.60;;;3.50;;
22774;SDS011;11554;51.106;3.684;2022-11-25T07:15:00;12.60;;;3.50;;
22774;SDS011;11554;51.106;3.684;2022-11-25T07:20:00;12.90;;;4.40;;
22774;SDS011;11554;51.106;3.684;2022-11-25T07:25:00;12.90;;;4.40;;
22774;SDS011;11554;51.106;3.684;2022-11-25T07:30:00;11.70;;;4.40;;
22774;SDS011;11554;51.106;3.684;2022-11-25T07:35:00;11.70;;;4.40;;
22774;SDS011;11554;51.106;3.684;2022-11-25T07:40:00;12.20;;;4.80;;
22774;SDS011;11554;51.106;3.684;2022-11-25T07:45:00;12.20;;;4.80;;
22774;SDS011;11554;51.106;3.684;2022-11-25T07:50:00;13.90;;;4.60;;
22774;SDS011;11554;51.106;3.684;2022-11-25T07:55:00;13.90;;;4.60;;
22774;SDS011;11554;51.106;3.684;2022-11-25T08:00:00;16.30;;;4.40;;
22774;SDS011;11554;51.106;3.684;2022-11-25T08:05:00;16.30;;;4.40;;
22774;SDS011;11554;51.106;3.684;2022-11-25T08:10:00;12.40;;;3.80;;
22774;SDS011;11554;51.106;3.684;2022-11-25T08:15:00;12.40;;;3.80;;
22774;SDS011;11554;51.106;3.684;2022-11-25T08:20:00;11.60;;;3.20;;
22774;SDS011;11554;51.106;3.684;2022-11-25T08:25:00;11.60;;;3.20;;
22774;SDS011;11554;51.106;3.684;2022-11-25T08:30:00;10.90;;;2.50;;
22774;SDS011;11554;51.106;3.684;2022-11-25T08:35:00;10.90;;;2.50;;
22774;SDS011;11554;51.106;3.684;2022-11-25T08:40:00;9.20;;;2.50;;
22774;SDS011;11554;51.106;3.684;2022-11-25T08:45:00;9.20;;;2.50;;
22774;SDS011;11554;51.106;3.684;2022-11-25T08:50:00;8.80;;;2.40;;
22774;SDS011;11554;51.106;3.684;2022-11-25T08:55:00;8.80;;;2.40;;
22774;SDS011;11554;51.106;3.684;2022-11-25T09:00:00;9.50;;;2.50;;
22774;SDS011;11554;51.106;3.684;2022-11-25T09:05:00;9.50;;;2.50;;
22774;SDS011;11554;51.106;3.684;2022-11-25T09:10:00;10.10;;;2.50;;
22774;SDS011;11554;51.106;3.684;2022-11-25T09:15:00;10.10;;;2.50;;
22774;SDS011;11554;51.106;3.684;2022-11-25T09:20:00;12.60;;;3.00;;
22774;SDS011;11554;51.106;3.684;2022-11-25T09:25:00;12.60;;;3.00;;
22774;SDS011;11554;51.106;3.684;2022-11-25T09:30:00;11.10;;;2.80;;
22774;SDS011;11554;51.106;3.684;2022-11-25T09:35:00;11.10;;;2.80;;
22774;SDS011;11554;51.106;3.684;2022-11-25T09:40:00;14.80;;;3.30;;
22774;SDS011;11554;51.106;3.684;2022-11-25T09:45:08;14.80;;;3.30;;
22774;SDS011;11554;51.106;3.684;2022-11-25T09:50:10;12.00;;;2.90;;
22774;SDS011;11554;51.106;3.684;2022-11-25T09:55:04;12.00;;;2.90;;
22774;SDS011;11554;51.106;3.684;2022-11-25T10:00:04;11.20;;;2.80;;
22774;SDS011;11554;51.106;3.684;2022-11-25T10:05:06;11.20;;;2.80;;
22774;SDS011;11554;51.106;3.684;2022-11-25T10:10:03;10.20;;;3.10;;
22774;SDS011;11554;51.106;3.684;2022-11-25T10:15:02;10.20;;;3.10;;
22774;SDS011;11554;51.106;3.684;2022-11-25T10:20:04;11.90;;;3.00;;
22774;SDS011;11554;51.106;3.684;2022-11-25T10:25:02;11.90;;;3.00;;
22774;SDS011;11554;51.106;3.684;2022-11-25T10:30:05;12.10;;;3.80;;
22774;SDS011;11554;51.106;3.684;2022-11-25T10:35:05;12.10;;;3.80;;
22774;SDS011;11554;51.106;3.684;2022-11-25T10:40:00;13.60;;;3.30;;
22774;SDS011;11554;51.106;3.684;2022-11-25T10:45:00;13.60;;;3.30;;
22774;SDS011;11554;51.106;3.684;2022-11-25T10:50:12;13.00;;;3.40;;
22774;SDS011;11554;51.106;3.684;2022-11-25T10:55:09;13.00;;;3.40;;
22774;SDS011;11554;51.106;3.684;2022-11-25T11:00:01;11.80;;;3.00;;
22774;SDS011;11554;51.106;3.684;2022-11-25T11:05:02;11.80;;;3.00;;
22774;SDS011;11554;51.106;3.684;2022-11-25T11:10:15;13.20;;;3.10;;
22774;SDS011;11554;51.106;3.684;2022-11-25T11:15:13;13.20;;;3.10;;
22774;SDS011;11554;51.106;3.684;2022-11-25T11:20:13;13.70;;;3.00;;
22774;SDS011;11554;51.106;3.684;2022-11-25T11:25:24;13.70;;;3.00;;
22774;SDS011;11554;51.106;3.684;2022-11-25T11:30:08;13.30;;;3.20;;
22774;SDS011;11554;51.106;3.684;2022-11-25T11:35:05;13.30;;;3.20;;
22774;SDS011;11554;51.106;3.684;2022-11-25T11:40:16;12.30;;;2.50;;
22774;SDS011;11554;51.106;3.684;2022-11-25T11:45:11;12.30;;;2.50;;
22774;SDS011;11554;51.106;3.684;2022-11-25T11:50:16;12.40;;;2.60;;
22774;SDS011;11554;51.106;3.684;2022-11-25T11:55:04;12.40;;;2.60;;
22774;SDS011;11554;51.106;3.684;2022-11-25T12:00:02;13.60;;;2.70;;
22774;SDS011;11554;51.106;3.684;2022-11-25T12:05:11;13.60;;;2.70;;
22774;SDS011;11554;51.106;3.684;2022-11-25T12:10:04;15.40;;;3.00;;
22774;SDS011;11554;51.106;3.684;2022-11-25T12:15:07;15.40;;;3.00;;
22774;SDS011;11554;51.106;3.684;2022-11-25T12:20:05;13.50;;;2.90;;
22774;SDS011;11554;51.106;3.684;2022-11-25T12:25:03;13.50;;;2.90;;
22774;SDS011;11554;51.106;3.684;2022-11-25T12:30:04;15.80;;;2.80;;
22774;SDS011;11554;51.106;3.684;2022-11-25T12:35:02;15.80;;;2.80;;
22774;SDS011;11554;51.106;3.684;2022-11-25T12:40:06;19.90;;;3.80;;
22774;SDS011;11554;51.106;3.684;2022-11-25T12:45:03;19.90;;;3.80;;
22774;SDS011;11554;51.106;3.684;2022-11-25T12:50:00;15.90;;;3.10;;
22774;SDS011;11554;51.106;3.684;2022-11-25T12:55:09;15.90;;;3.10;;
22774;SDS011;11554;51.106;3.684;2022-11-25T13:00:08;22.90;;;3.50;;
22774;SDS011;11554;51.106;3.684;2022-11-25T13:05:12;22.90;;;3.50;;
22774;SDS011;11554;51.106;3.684;2022-11-25T13:10:13;21.00;;;3.60;;
22774;SDS011;11554;51.106;3.684;2022-11-25T13:15:15;21.00;;;3.60;;
22774;SDS011;11554;51.106;3.684;2022-11-25T13:25:00;17.20;;;3.30;;
22774;SDS011;11554;51.106;3.684;2022-11-25T13:30:01;17.40;;;4.30;;
22774;SDS011;11554;51.106;3.684;2022-11-25T13:45:00;20.20;;;4.40;;
22774;SDS011;11554;51.106;3.684;2022-11-25T13:50:01;20.40;;;6.10;;
22774;SDS011;11554;51.106;3.684;2022-11-25T13:55:07;20.40;;;6.10;;
22774;SDS011;11554;51.106;3.684;2022-11-25T14:00:04;13.80;;;3.50;;
22774;SDS011;11554;51.106;3.684;2022-11-25T14:05:17;13.80;;;3.50;;
22774;SDS011;11554;51.106;3.684;2022-11-25T14:10:14;11.90;;;3.10;;
22774;SDS011;11554;51.106;3.684;2022-11-25T14:15:12;11.90;;;3.10;;
22774;SDS011;11554;51.106;3.684;2022-11-25T14:20:09;16.20;;;2.90;;
22774;SDS011;11554;51.106;3.684;2022-11-25T14:25:12;16.20;;;2.90;;
22774;SDS011;11554;51.106;3.684;2022-11-25T14:30:03;14.00;;;2.50;;
22774;SDS011;11554;51.106;3.684;2022-11-25T14:35:04;14.00;;;2.50;;
22774;SDS011;11554;51.106;3.684;2022-11-25T14:40:05;12.80;;;1.90;;
22774;SDS011;11554;51.106;3.684;2022-11-25T14:45:00;12.80;;;1.90;;
22774;SDS011;11554;51.106;3.684;2022-11-25T14:50:00;15.60;;;2.50;;
22774;SDS011;11554;51.106;3.684;2022-11-25T14:55:02;15.60;;;2.50;;
22774;SDS011;11554;51.106;3.684;2022-11-25T15:00:03;14.20;;;2.40;;
22774;SDS011;11554;51.106;3.684;2022-11-25T15:05:02;14.20;;;2.40;;
22774;SDS011;11554;51.106;3.684;2022-11-25T15:10:00;18.40;;;2.80;;
22774;SDS011;11554;51.106;3.684;2022-11-25T15:15:00;18.40;;;2.80;;
22774;SDS011;11554;51.106;3.684;2022-11-25T15:20:02;18.10;;;3.30;;
22774;SDS011;11554;51.106;3.684;2022-11-25T15:25:06;18.10;;;3.30;;
22774;SDS011;11554;51.106;3.684;2022-11-25T15:30:00;12.10;;;2.40;;
22774;SDS011;11554;51.106;3.684;2022-11-25T15:35:01;12.10;;;2.40;;
22774;SDS011;11554;51.106;3.684;2022-11-25T15:45:05;15.00;;;3.40;;
22774;SDS011;11554;51.106;3.684;2022-11-25T15:50:02;17.20;;;5.10;;
22774;SDS011;11554;51.106;3.684;2022-11-25T15:55:02;17.20;;;5.10;;
22774;SDS011;11554;51.106;3.684;2022-11-25T16:00:12;18.20;;;3.90;;
22774;SDS011;11554;51.106;3.684;2022-11-25T16:05:14;18.20;;;3.90;;
22774;SDS011;11554;51.106;3.684;2022-11-25T16:10:00;19.50;;;4.50;;
22774;SDS011;11554;51.106;3.684;2022-11-25T16:15:00;19.50;;;4.50;;
22774;SDS011;11554;51.106;3.684;2022-11-25T16:20:01;16.60;;;4.00;;
22774;SDS011;11554;51.106;3.684;2022-11-25T16:25:00;16.60;;;4.00;;
22774;SDS011;11554;51.106;3.684;2022-11-25T16:30:16;13.10;;;3.40;;
22774;SDS011;11554;51.106;3.684;2022-11-25T16:35:10;13.10;;;3.40;;
22774;SDS011;11554;51.106;3.684;2022-11-25T16:40:00;15.00;;;3.50;;
22774;SDS011;11554;51.106;3.684;2022-11-25T16:45:00;15.00;;;3.50;;
22774;SDS011;11554;51.106;3.684;2022-11-25T16:50:00;15.00;;;3.40;;
22774;SDS011;11554;51.106;3.684;2022-11-25T16:55:00;15.00;;;3.40;;
22774;SDS011;11554;51.106;3.684;2022-11-25T17:00:02;12.10;;;3.30;;
22774;SDS011;11554;51.106;3.684;2022-11-25T17:05:13;12.10;;;3.30;;
22774;SDS011;11554;51.106;3.684;2022-11-25T17:10:00;21.90;;;9.70;;
22774;SDS011;11554;51.106;3.684;2022-11-25T17:15:02;21.90;;;9.70;;
22774;SDS011;11554;51.106;3.684;2022-11-25T17:20:00;16.80;;;5.90;;
22774;SDS011;11554;51.106;3.684;2022-11-25T17:25:00;16.80;;;5.90;;
22774;SDS011;11554;51.106;3.684;2022-11-25T17:30:02;26.70;;;8.80;;
22774;SDS011;11554;51.106;3.684;2022-11-25T17:35:00;26.70;;;8.80;;
22774;SDS011;11554;51.106;3.684;2022-11-25T17:40:00;16.60;;;5.90;;
22774;SDS011;11554;51.106;3.684;2022-11-25T17:45:00;16.60;;;5.90;;
22774;SDS011;11554;51.106;3.684;2022-11-25T17:50:00;17.20;;;5.70;;
22774;SDS011;11554;51.106;3.684;2022-11-25T17:55:00;17.20;;;5.70;;
22774;SDS011;11554;51.106;3.684;2022-11-25T18:00:00;23.80;;;8.00;;
22774;SDS011;11554;51.106;3.684;2022-11-25T18:05:00;23.80;;;8.00;;
22774;SDS011;11554;51.106;3.684;2022-11-25T18:10:00;19.60;;;6.90;;
22774;SDS011;11554;51.106;3.684;2022-11-25T18:15:00;19.60;;;6.90;;
22774;SDS011;11554;51.106;3.684;2022-11-25T18:20:00;25.00;;;8.50;;
22774;SDS011;11554;51.106;3.684;2022-11-25T18:25:00;25.00;;;8.50;;
22774;SDS011;11554;51.106;3.684;2022-11-25T18:30:00;30.60;;;10.90;;
22774;SDS011;11554;51.106;3.684;2022-11-25T18:35:00;30.60;;;10.90;;
22774;SDS011;11554;51.106;3.684;2022-11-25T18:40:00;20.10;;;7.40;;
22774;SDS011;11554;51.106;3.684;2022-11-25T18:45:00;20.10;;;7.40;;
22774;SDS011;11554;51.106;3.684;2022-11-25T18:50:00;24.70;;;8.70;;
22774;SDS011;11554;51.106;3.684;2022-11-25T18:55:00;24.70;;;8.70;;
22774;SDS011;11554;51.106;3.684;2022-11-25T19:00:00;24.40;;;8.70;;
22774;SDS011;11554;51.106;3.684;2022-11-25T19:05:01;24.40;;;8.70;;
22774;SDS011;11554;51.106;3.684;2022-11-25T19:10:00;24.80;;;11.80;;
22774;SDS011;11554;51.106;3.684;2022-11-25T19:15:00;24.80;;;11.80;;
22774;SDS011;11554;51.106;3.684;2022-11-25T19:20:00;19.40;;;6.50;;
22774;SDS011;11554;51.106;3.684;2022-11-25T19:25:00;19.40;;;6.50;;
22774;SDS011;11554;51.106;3.684;2022-11-25T19:30:00;21.40;;;7.90;;
22774;SDS011;11554;51.106;3.684;2022-11-25T19:35:04;21.40;;;7.90;;
22774;SDS011;11554;51.106;3.684;2022-11-25T19:40:00;27.10;;;9.20;;
22774;SDS011;11554;51.106;3.684;2022-11-25T19:45:00;27.10;;;9.20;;
22774;SDS011;11554;51.106;3.684;2022-11-25T19:50:00;22.60;;;9.50;;
22774;SDS011;11554;51.106;3.684;2022-11-25T19:55:00;22.60;;;9.50;;
22774;SDS011;11554;51.106;3.684;2022-11-25T20:00:00;23.00;;;10.30;;
22774;SDS011;11554;51.106;3.684;2022-11-25T20:05:00;23.00;;;10.30;;
22774;SDS011;11554;51.106;3.684;2022-11-25T20:10:13;22.80;;;9.70;;
22774;SDS011;11554;51.106;3.684;2022-11-25T20:15:00;22.80;;;9.70;;
22774;SDS011;11554;51.106;3.684;2022-11-25T20:20:03;23.20;;;10.10;;
22774;SDS011;11554;51.106;3.684;2022-11-25T20:25:02;23.20;;;10.10;;
22774;SDS011;11554;51.106;3.684;2022-11-25T20:30:00;22.20;;;10.50;;
22774;SDS011;11554;51.106;3.684;2022-11-25T20:35:00;22.20;;;10.50;;
22774;SDS011;11554;51.106;3.684;2022-11-25T20:40:00;30.10;;;11.20;;
22774;SDS011;11554;51.106;3.684;2022-11-25T20:45:00;30.10;;;11.20;;
22774;SDS011;11554;51.106;3.684;2022-11-25T20:50:00;23.10;;;10.90;;
22774;SDS011;11554;51.106;3.684;2022-11-25T20:55:05;23.10;;;10.90;;
22774;SDS011;11554;51.106;3.684;2022-11-25T21:00:00;27.60;;;11.10;;
22774;SDS011;11554;51.106;3.684;2022-11-25T21:05:00;27.60;;;11.10;;
22774;SDS011;11554;51.106;3.684;2022-11-25T21:10:00;26.30;;;11.50;;
22774;SDS011;11554;51.106;3.684;2022-11-25T21:15:00;26.30;;;11.50;;
22774;SDS011;11554;51.106;3.684;2022-11-25T21:20:00;24.30;;;10.50;;
22774;SDS011;11554;51.106;3.684;2022-11-25T21:25:00;24.30;;;10.50;;
22774;SDS011;11554;51.106;3.684;2022-11-25T21:30:00;23.60;;;11.30;;
22774;SDS011;11554;51.106;3.684;2022-11-25T21:35:00;23.60;;;11.30;;
22774;SDS011;11554;51.106;3.684;2022-11-25T21:40:00;20.80;;;10.90;;
22774;SDS011;11554;51.106;3.684;2022-11-25T21:45:00;20.80;;;10.90;;
22774;SDS011;11554;51.106;3.684;2022-11-25T21:50:00;28.00;;;12.80;;
22774;SDS011;11554;51.106;3.684;2022-11-25T21:55:00;28.00;;;12.80;;
22774;SDS011;11554;51.106;3.684;2022-11-25T22:00:00;25.90;;;11.60;;
22774;SDS011;11554;51.106;3.684;2022-11-25T22:05:00;25.90;;;11.60;;
22774;SDS011;11554;51.106;3.684;2022-11-25T22:10:00;35.70;;;16.70;;
22774;SDS011;11554;51.106;3.684;2022-11-25T22:15:00;35.70;;;16.70;;
22774;SDS011;11554;51.106;3.684;2022-11-25T22:20:00;28.50;;;12.00;;
22774;SDS011;11554;51.106;3.684;2022-11-25T22:25:00;28.50;;;12.00;;
22774;SDS011;11554;51.106;3.684;2022-11-25T22:30:00;21.80;;;10.80;;
22774;SDS011;11554;51.106;3.684;2022-11-25T22:35:00;21.80;;;10.80;;
22774;SDS011;11554;51.106;3.684;2022-11-25T22:40:00;23.70;;;10.70;;
22774;SDS011;11554;51.106;3.684;2022-11-25T22:45:03;23.70;;;10.70;;
22774;SDS011;11554;51.106;3.684;2022-11-25T22:50:02;24.10;;;10.20;;
22774;SDS011;11554;51.106;3.684;2022-11-25T22:55:04;24.10;;;10.20;;
22774;SDS011;11554;51.106;3.684;2022-11-25T23:00:00;22.30;;;10.20;;
22774;SDS011;11554;51.106;3.684;2022-11-25T23:05:00;22.30;;;10.20;;
22774;SDS011;11554;51.106;3.684;2022-11-25T23:10:00;21.80;;;10.20;;
22774;SDS011;11554;51.106;3.684;2022-11-25T23:15:00;21.80;;;10.20;;
22774;SDS011;11554;51.106;3.684;2022-11-25T23:20:00;21.10;;;10.30;;
22774;SDS011;11554;51.106;3.684;2022-11-25T23:25:00;21.10;;;10.30;;
22774;SDS011;11554;51.106;3.684;2022-11-25T23:30:00;21.20;;;9.60;;
22774;SDS011;11554;51.106;3.684;2022-11-25T23:35:00;21.20;;;9.60;;
22774;SDS011;11554;51.106;3.684;2022-11-25T23:45:00;22.10;;;10.20;;
22774;SDS011;11554;51.106;3.684;2022-11-25T23:50:00;24.30;;;10.00;;
22774;SDS011;11554;51.106;3.684;2022-11-25T23:55:00;24.30;;;10.00;;
